createdAt,value
2023-04-29T00:00:20.929Z,23.73
2023-04-29T00:02:48.321Z,27.73
2023-04-29T00:05:15.915Z,27.27
2023-04-29T00:07:43.645Z,24.00
2023-04-29T00:10:12.372Z,25.50
2023-04-29T00:12:40.318Z,28.35
2023-04-29T00:15:08.881Z,24.48
2023-04-29T00:17:36.839Z,26.00
2023-04-29T00:20:04.391Z,24.63
2023-04-29T00:22:31.598Z,25.63
2023-04-29T00:24:58.773Z,24.25
2023-04-29T00:27:26.459Z,24.40
2023-04-29T00:29:54.584Z,23.45
2023-04-29T00:32:22.992Z,23.05
2023-04-29T00:34:50.422Z,22.77
2023-04-29T00:37:17.785Z,21.70
2023-04-29T00:39:45.209Z,19.95
2023-04-29T00:42:12.794Z,20.25
2023-04-29T00:44:40.383Z,23.00
2023-04-29T00:47:11.420Z,19.40
2023-04-29T00:49:41.768Z,20.00
2023-04-29T00:52:09.178Z,21.67
2023-04-29T00:54:37.787Z,23.70
2023-04-29T00:57:06.709Z,23.17
2023-04-29T00:59:34.613Z,20.90
2023-04-29T01:02:02.992Z,20.55
2023-04-29T01:04:33.482Z,20.27
2023-04-29T01:07:19.826Z,21.80
2023-04-29T01:09:47.388Z,23.20
2023-04-29T01:12:25.263Z,21.38
2023-04-29T01:15:04.867Z,23.50
2023-04-29T01:17:41.317Z,20.83
2023-04-29T01:20:10.531Z,21.45
2023-04-29T01:22:39.300Z,22.10
2023-04-29T01:25:07.739Z,18.50
2023-04-29T01:27:55.576Z,19.65
2023-04-29T01:30:33.132Z,20.67
2023-04-29T01:33:09.941Z,20.80
2023-04-29T01:35:42.371Z,18.00
2023-04-29T01:38:29.571Z,17.35
2023-04-29T01:41:03.358Z,18.00
2023-04-29T01:43:31.357Z,19.10
2023-04-29T01:46:01.836Z,17.27
2023-04-29T01:48:29.275Z,17.25
2023-04-29T01:50:56.832Z,16.02
2023-04-29T01:53:24.092Z,16.42
2023-04-29T01:55:51.496Z,16.42
2023-04-29T01:58:21.685Z,17.10
2023-04-29T02:00:55.539Z,16.25
2023-04-29T02:03:22.981Z,15.97
2023-04-29T02:05:54.276Z,17.73
2023-04-29T02:08:21.865Z,17.30
2023-04-29T02:10:56.117Z,16.40
2023-04-29T02:13:35.522Z,16.52
2023-04-29T02:16:10.667Z,16.17
2023-04-29T02:18:41.312Z,16.23
2023-04-29T02:21:08.827Z,17.40
2023-04-29T02:23:36.894Z,18.23
2023-04-29T02:26:06.381Z,17.60
2023-04-29T02:28:36.911Z,17.83
2023-04-29T02:31:04.986Z,18.23
2023-04-29T02:33:32.970Z,18.30
2023-04-29T02:36:00.373Z,18.55
2023-04-29T02:38:27.599Z,18.17
2023-04-29T02:40:54.844Z,18.42
2023-04-29T02:43:22.299Z,17.73
2023-04-29T02:45:49.668Z,19.48
2023-04-29T02:48:17.050Z,20.00
2023-04-29T02:50:44.439Z,19.63
2023-04-29T02:53:11.681Z,19.30
2023-04-29T02:55:39.164Z,19.75
2023-04-29T02:58:09.808Z,19.63
2023-04-29T03:00:37.194Z,21.45
2023-04-29T03:03:04.583Z,17.80
2023-04-29T03:05:32.141Z,18.80
2023-04-29T03:07:59.453Z,19.70
2023-04-29T03:10:26.807Z,20.17
2023-04-29T03:12:54.049Z,20.10
2023-04-29T03:15:21.329Z,20.95
2023-04-29T03:17:49.542Z,20.75
2023-04-29T03:20:17.005Z,20.80
2023-04-29T03:22:44.244Z,20.00
2023-04-29T03:25:11.612Z,20.80
2023-04-29T03:27:40.010Z,20.60
2023-04-29T03:30:08.982Z,19.92
2023-04-29T03:32:42.310Z,20.38
2023-04-29T03:35:12.953Z,20.63
2023-04-29T03:37:50.532Z,20.90
2023-04-29T03:40:25.825Z,20.67
2023-04-29T03:42:53.462Z,18.80
2023-04-29T03:45:21.180Z,21.17
2023-04-29T03:47:48.494Z,21.55
2023-04-29T03:50:15.968Z,20.48
2023-04-29T03:52:43.374Z,20.50
2023-04-29T03:55:14.484Z,20.63
2023-04-29T03:57:43.006Z,19.70
2023-04-29T04:00:11.717Z,20.60
2023-04-29T04:02:45.481Z,23.75
2023-04-29T04:05:14.525Z,20.02
2023-04-29T04:07:45.651Z,18.88
2023-04-29T04:10:42.039Z,20.55
2023-04-29T04:13:35.483Z,19.73
2023-04-29T04:16:03.620Z,19.15
2023-04-29T04:18:31.764Z,20.45
2023-04-29T04:20:59.555Z,23.02
2023-04-29T04:23:26.972Z,20.23
2023-04-29T04:25:55.674Z,20.33
2023-04-29T04:28:52.000Z,21.98
2023-04-29T04:31:27.745Z,19.42
2023-04-29T04:33:56.130Z,19.65
2023-04-29T04:36:24.043Z,19.85
2023-04-29T04:38:51.806Z,19.98
2023-04-29T04:41:19.182Z,21.02
2023-04-29T04:43:48.643Z,20.40
2023-04-29T04:46:23.326Z,20.02
2023-04-29T04:49:01.682Z,20.23
2023-04-29T04:51:33.265Z,21.48
2023-04-29T04:54:00.867Z,21.05
2023-04-29T04:56:30.224Z,20.77
2023-04-29T04:58:57.498Z,20.15
2023-04-29T05:01:24.955Z,19.63
2023-04-29T05:03:52.566Z,18.80
2023-04-29T05:06:19.929Z,20.40
2023-04-29T05:08:48.296Z,22.83
2023-04-29T05:11:20.145Z,20.27
2023-04-29T05:14:00.810Z,18.95
2023-04-29T05:16:28.172Z,21.13
2023-04-29T05:18:55.805Z,19.00
2023-04-29T05:21:26.736Z,20.33
2023-04-29T05:23:54.053Z,19.63
2023-04-29T05:26:21.800Z,21.50
2023-04-29T05:28:49.204Z,19.60
2023-04-29T05:31:18.207Z,19.70
2023-04-29T05:33:45.533Z,21.00
2023-04-29T05:36:12.831Z,18.80
2023-04-29T05:38:40.304Z,22.23
2023-04-29T05:43:47.003Z,18.95
2023-04-29T05:46:16.563Z,17.23
2023-04-29T05:48:43.912Z,20.73
2023-04-29T05:51:13.780Z,19.73
2023-04-29T05:53:41.321Z,19.00
2023-04-29T05:56:08.910Z,19.60
2023-04-29T05:58:37.133Z,20.13
2023-04-29T06:01:04.463Z,19.58
2023-04-29T06:03:32.366Z,17.88
2023-04-29T06:06:20.198Z,18.30
2023-04-29T06:09:03.198Z,19.13
2023-04-29T06:11:33.782Z,18.70
2023-04-29T06:14:02.419Z,19.90
2023-04-29T06:16:30.135Z,17.95
2023-04-29T06:18:57.481Z,19.02
2023-04-29T06:21:24.800Z,16.08
2023-04-29T06:23:53.078Z,15.55
2023-04-29T06:26:21.654Z,16.02
2023-04-29T06:28:49.754Z,13.90
2023-04-29T06:31:17.464Z,15.18
2023-04-29T06:33:44.958Z,14.30
2023-04-29T06:36:12.607Z,15.75
2023-04-29T06:39:00.185Z,15.65
2023-04-29T06:41:45.901Z,13.93
2023-04-29T06:44:31.612Z,13.57
2023-04-29T06:47:20.124Z,13.30
2023-04-29T06:50:11.141Z,13.10
2023-04-29T06:52:38.427Z,13.48
2023-04-29T06:55:06.496Z,13.73
2023-04-29T06:57:33.817Z,14.15
2023-04-29T07:00:01.220Z,14.07
2023-04-29T07:02:28.598Z,11.93
2023-04-29T07:04:56.055Z,12.70
2023-04-29T07:07:23.475Z,11.63
2023-04-29T07:09:52.783Z,12.65
2023-04-29T07:12:20.956Z,11.85
2023-04-29T07:14:48.258Z,13.48
2023-04-29T07:17:15.582Z,11.52
2023-04-29T07:19:43.425Z,13.48
2023-04-29T07:22:11.376Z,12.07
2023-04-29T07:24:38.798Z,12.95
2023-04-29T07:27:06.273Z,12.05
2023-04-29T07:29:34.012Z,12.40
2023-04-29T07:32:01.497Z,12.20
2023-04-29T07:34:28.832Z,11.30
2023-04-29T07:36:57.287Z,11.90
2023-04-29T07:39:24.546Z,11.38
2023-04-29T07:41:56.021Z,10.60
2023-04-29T07:44:23.688Z,10.85
2023-04-29T07:46:51.045Z,10.60
2023-04-29T07:49:18.779Z,9.52
2023-04-29T07:51:46.707Z,10.02
2023-04-29T07:54:13.933Z,9.60
2023-04-29T07:56:41.164Z,9.40
2023-04-29T07:59:08.418Z,8.70
2023-04-29T08:01:35.971Z,8.57
2023-04-29T08:04:03.544Z,10.48
2023-04-29T08:06:34.643Z,8.07
2023-04-29T08:09:03.336Z,9.00
2023-04-29T08:11:30.861Z,8.90
2023-04-29T08:14:00.057Z,10.07
2023-04-29T08:16:28.021Z,8.23
2023-04-29T08:18:56.156Z,9.15
2023-04-29T08:21:23.694Z,10.00
2023-04-29T08:23:50.957Z,7.15
2023-04-29T08:26:18.195Z,8.35
2023-04-29T08:28:45.642Z,8.35
2023-04-29T08:31:19.494Z,8.98
2023-04-29T08:33:46.861Z,8.20
2023-04-29T08:36:14.181Z,8.27
2023-04-29T08:38:41.794Z,9.13
2023-04-29T08:41:09.796Z,8.77
2023-04-29T08:43:40.999Z,8.77
2023-04-29T08:46:08.489Z,9.27
2023-04-29T08:48:37.886Z,8.65
2023-04-29T08:51:05.452Z,9.82
2023-04-29T08:53:32.812Z,9.00
2023-04-29T08:56:09.701Z,9.38
2023-04-29T08:58:39.359Z,8.30
2023-04-29T09:01:09.752Z,8.88
2023-04-29T09:03:55.786Z,8.48
2023-04-29T09:06:23.179Z,8.88
2023-04-29T09:08:50.736Z,9.05
2023-04-29T09:11:18.353Z,8.40
2023-04-29T09:13:45.722Z,8.80
2023-04-29T09:16:13.324Z,9.15
2023-04-29T09:18:50.411Z,9.18
2023-04-29T09:21:22.369Z,10.07
2023-04-29T09:23:54.090Z,9.88
2023-04-29T09:26:22.321Z,9.57
2023-04-29T09:29:06.871Z,9.15
2023-04-29T09:31:34.109Z,9.02
2023-04-29T09:34:01.615Z,8.13
2023-04-29T09:36:38.061Z,8.80
2023-04-29T09:39:10.443Z,7.50
2023-04-29T09:41:39.279Z,8.70
2023-04-29T09:44:07.299Z,8.18
2023-04-29T09:46:36.636Z,7.95
2023-04-29T09:49:07.633Z,7.90
2023-04-29T09:51:45.806Z,7.90
2023-04-29T09:54:26.279Z,7.60
2023-04-29T09:56:54.020Z,8.35
2023-04-29T09:59:21.698Z,8.68
2023-04-29T10:01:52.864Z,9.13
2023-04-29T10:04:21.429Z,6.63
2023-04-29T10:06:52.696Z,7.20
2023-04-29T10:09:20.943Z,11.43
2023-04-29T10:11:49.315Z,8.90
2023-04-29T10:14:17.395Z,8.10
2023-04-29T10:16:49.033Z,9.37
2023-04-29T10:19:20.346Z,7.38
2023-04-29T10:21:50.132Z,8.07
2023-04-29T10:24:21.490Z,6.05
2023-04-29T10:26:50.685Z,6.85
2023-04-29T10:29:18.630Z,6.72
2023-04-29T10:31:47.445Z,6.90
2023-04-29T10:36:42.107Z,7.15
2023-04-29T10:39:13.900Z,7.05
2023-04-29T10:41:47.029Z,8.10
2023-04-29T10:44:14.726Z,8.40
2023-04-29T10:46:42.099Z,7.75
2023-04-29T10:49:11.431Z,7.40
2023-04-29T10:51:43.174Z,7.10
2023-04-29T10:54:13.205Z,8.82
2023-04-29T10:56:40.542Z,6.70
2023-04-29T10:59:12.479Z,6.95
2023-04-29T11:01:50.326Z,7.15
2023-04-29T11:04:18.563Z,8.82
2023-04-29T11:06:47.413Z,7.75
2023-04-29T11:09:27.788Z,7.30
2023-04-29T11:12:01.531Z,7.88
2023-04-29T11:14:38.098Z,7.55
2023-04-29T11:17:11.380Z,8.07
2023-04-29T11:19:46.200Z,8.35
2023-04-29T11:22:17.641Z,7.85
2023-04-29T11:24:51.107Z,8.02
2023-04-29T11:27:19.647Z,7.00
2023-04-29T11:29:50.343Z,6.35
2023-04-29T11:32:21.667Z,8.23
2023-04-29T11:34:49.227Z,7.65
2023-04-29T11:37:20.757Z,6.40
2023-04-29T11:39:48.343Z,6.40
2023-04-29T11:42:20.427Z,6.43
2023-04-29T11:44:47.731Z,6.38
2023-04-29T11:47:15.041Z,6.88
2023-04-29T11:49:42.966Z,6.03
2023-04-29T11:52:11.060Z,6.32
2023-04-29T11:54:38.418Z,5.53
2023-04-29T11:57:05.712Z,5.70
2023-04-29T11:59:33.038Z,5.57
2023-04-29T12:02:00.908Z,5.28
2023-04-29T12:04:28.499Z,5.63
2023-04-29T12:06:58.688Z,6.63
2023-04-29T12:09:26.023Z,5.43
2023-04-29T12:11:53.380Z,5.32
2023-04-29T12:14:20.869Z,5.93
2023-04-29T12:16:48.372Z,5.97
2023-04-29T12:19:15.897Z,6.32
2023-04-29T12:21:50.104Z,5.53
2023-04-29T12:24:17.451Z,5.88
2023-04-29T12:26:46.672Z,5.40
2023-04-29T12:29:14.583Z,5.47
2023-04-29T12:31:42.054Z,6.68
2023-04-29T12:34:10.334Z,5.93
2023-04-29T12:36:37.862Z,6.03
2023-04-29T12:39:09.523Z,6.50
2023-04-29T12:41:42.997Z,6.55
2023-04-29T12:44:13.040Z,6.25
2023-04-29T12:46:41.552Z,6.80
2023-04-29T12:49:08.909Z,7.20
2023-04-29T12:51:36.767Z,5.93
2023-04-29T12:54:04.672Z,6.15
2023-04-29T12:56:31.999Z,6.28
2023-04-29T12:59:12.208Z,7.43
2023-04-29T13:01:39.781Z,6.53
2023-04-29T13:04:09.169Z,8.15
2023-04-29T13:06:41.003Z,7.25
2023-04-29T13:09:17.031Z,8.20
2023-04-29T13:11:46.544Z,7.65
2023-04-29T13:14:13.850Z,7.97
2023-04-29T13:16:41.283Z,7.43
2023-04-29T13:19:24.689Z,6.93
2023-04-29T13:21:55.899Z,6.70
2023-04-29T13:24:23.147Z,6.70
2023-04-29T13:26:52.370Z,6.53
2023-04-29T13:29:20.097Z,5.72
2023-04-29T13:31:47.609Z,6.60
2023-04-29T13:34:14.947Z,5.80
2023-04-29T13:36:42.260Z,6.05
2023-04-29T13:39:10.441Z,6.55
2023-04-29T13:41:41.282Z,5.93
2023-04-29T13:44:23.659Z,5.72
2023-04-29T13:46:56.694Z,6.00
2023-04-29T13:49:53.689Z,6.13
2023-04-29T13:59:48.759Z,5.82
2023-04-29T14:04:50.019Z,5.47
2023-04-29T14:07:17.557Z,5.65
2023-04-29T14:09:44.947Z,4.70
2023-04-29T14:12:12.477Z,4.63
2023-04-29T14:14:40.411Z,4.60
2023-04-29T14:17:07.737Z,4.38
2023-04-29T14:19:35.074Z,4.65
2023-04-29T14:22:02.397Z,4.75
2023-04-29T14:24:29.961Z,5.00
2023-04-29T14:26:57.971Z,5.32
2023-04-29T14:29:25.294Z,5.30
2023-04-29T14:31:52.549Z,4.18
2023-04-29T14:34:20.054Z,4.65
2023-04-29T14:36:47.348Z,4.57
2023-04-29T14:39:14.735Z,4.22
2023-04-29T14:41:42.046Z,5.22
2023-04-29T14:44:09.272Z,4.90
2023-04-29T14:46:36.556Z,4.95
2023-04-29T14:49:04.327Z,4.15
2023-04-29T14:51:31.764Z,4.72
2023-04-29T14:53:58.990Z,3.95
2023-04-29T14:56:26.416Z,4.30
2023-04-29T14:58:53.693Z,4.68
2023-04-29T15:01:21.409Z,3.53
2023-04-29T15:03:48.769Z,3.42
2023-04-29T15:06:16.472Z,3.10
2023-04-29T15:08:43.743Z,2.80
2023-04-29T15:11:10.928Z,2.72
2023-04-29T15:13:38.380Z,4.57
2023-04-29T15:16:07.330Z,6.22
2023-04-29T15:21:01.925Z,3.08
2023-04-29T15:23:29.304Z,3.03
2023-04-29T15:25:56.994Z,3.17
2023-04-29T15:28:25.830Z,3.13
2023-04-29T15:30:53.092Z,2.90
2023-04-29T15:33:20.512Z,3.05
2023-04-29T15:35:47.811Z,3.05
2023-04-29T15:38:15.085Z,3.88
2023-04-29T15:40:42.291Z,3.00
2023-04-29T15:43:09.567Z,3.17
2023-04-29T15:45:36.863Z,2.80
2023-04-29T15:48:04.380Z,2.97
2023-04-29T15:50:31.680Z,3.40
2023-04-29T15:52:59.843Z,3.38
2023-04-29T15:55:27.096Z,2.90
2023-04-29T15:57:54.400Z,2.95
2023-04-29T16:00:21.722Z,2.38
2023-04-29T16:02:49.048Z,2.67
2023-04-29T16:05:16.447Z,2.30
2023-04-29T16:07:43.648Z,2.42
2023-04-29T16:10:11.053Z,2.70
2023-04-29T16:12:38.292Z,2.55
2023-04-29T16:15:06.182Z,2.47
2023-04-29T16:17:33.482Z,2.47
2023-04-29T16:20:01.422Z,2.50
2023-04-29T16:22:28.801Z,2.10
2023-04-29T16:24:56.091Z,3.22
2023-04-29T16:27:23.469Z,2.67
2023-04-29T16:29:51.302Z,1.95
2023-04-29T16:32:19.509Z,1.80
2023-04-29T16:34:46.860Z,3.28
2023-04-29T16:37:14.118Z,2.50
2023-04-29T16:39:41.682Z,2.10
2023-04-29T16:42:09.054Z,1.90
2023-04-29T16:44:36.332Z,1.90
2023-04-29T16:47:03.629Z,2.58
2023-04-29T16:49:31.799Z,1.63
2023-04-29T16:51:59.161Z,1.70
2023-04-29T16:54:27.712Z,2.08
2023-04-29T16:56:55.095Z,2.20
2023-04-29T16:59:22.363Z,2.30
2023-04-29T17:01:49.697Z,1.90
2023-04-29T17:04:17.189Z,2.28
2023-04-29T17:06:44.488Z,2.95
2023-04-29T17:09:12.167Z,2.05
2023-04-29T17:11:39.413Z,2.72
2023-04-29T17:14:06.781Z,3.10
2023-04-29T17:16:34.170Z,3.92
2023-04-29T17:19:01.467Z,3.72
2023-04-29T17:21:30.596Z,2.88
2023-04-29T17:26:26.264Z,3.33
2023-04-29T17:28:53.621Z,4.68
2023-04-29T17:31:25.071Z,4.35
2023-04-29T17:34:04.988Z,4.10
2023-04-29T17:36:33.431Z,4.60
2023-04-29T17:39:14.613Z,4.53
2023-04-29T17:41:45.668Z,4.53
2023-04-29T17:44:13.190Z,4.50
2023-04-29T17:46:41.027Z,7.47
2023-04-29T17:49:08.290Z,6.00
2023-04-29T17:51:35.673Z,5.03
2023-04-29T17:54:05.898Z,4.13
2023-04-29T17:56:34.923Z,3.70
2023-04-29T17:59:02.650Z,3.47
2023-04-29T18:01:29.977Z,4.20
2023-04-29T18:03:57.312Z,4.43
2023-04-29T18:06:24.814Z,4.38
2023-04-29T18:08:52.190Z,3.97
2023-04-29T18:11:19.397Z,4.45
2023-04-29T18:13:46.696Z,4.03
2023-04-29T18:16:14.027Z,4.70
2023-04-29T18:18:41.350Z,5.65
2023-04-29T18:21:08.542Z,4.32
2023-04-29T18:23:35.821Z,3.60
2023-04-29T18:26:03.366Z,4.63
2023-04-29T18:28:31.263Z,4.30
2023-04-29T18:30:58.462Z,4.53
2023-04-29T18:33:26.524Z,4.82
2023-04-29T18:35:54.621Z,4.47
2023-04-29T18:38:22.133Z,4.60
2023-04-29T18:40:49.407Z,5.38
2023-04-29T18:43:18.270Z,4.18
2023-04-29T18:45:45.925Z,4.53
2023-04-29T18:48:13.444Z,4.28
2023-04-29T18:50:40.748Z,4.97
2023-04-29T18:53:08.341Z,4.32
2023-04-29T18:55:35.968Z,5.10
2023-04-29T18:58:03.217Z,4.50
2023-04-29T19:00:30.614Z,4.28
2023-04-29T19:02:58.198Z,4.22
2023-04-29T19:05:25.573Z,4.63
2023-04-29T19:07:52.813Z,4.75
2023-04-29T19:10:20.074Z,4.70
2023-04-29T19:12:47.349Z,4.32
2023-04-29T19:15:15.339Z,5.05
2023-04-29T19:17:42.688Z,5.75
2023-04-29T19:20:10.260Z,5.53
2023-04-29T19:22:37.825Z,6.03
2023-04-29T19:25:05.416Z,4.82
2023-04-29T19:27:32.855Z,6.15
2023-04-29T19:30:00.214Z,5.18
2023-04-29T19:32:29.502Z,5.20
2023-04-29T19:34:57.517Z,5.72
2023-04-29T19:37:24.844Z,7.45
2023-04-29T19:39:52.798Z,7.03
2023-04-29T19:42:20.234Z,5.90
2023-04-29T19:44:47.510Z,7.55
2023-04-29T19:47:14.841Z,8.43
2023-04-29T19:49:42.159Z,9.23
2023-04-29T19:52:09.404Z,8.57
2023-04-29T19:54:37.076Z,8.15
2023-04-29T19:57:04.433Z,9.18
2023-04-29T19:59:31.648Z,9.02
2023-04-29T20:01:58.969Z,8.30
2023-04-29T20:04:26.765Z,9.50
2023-04-29T20:06:54.008Z,11.85
2023-04-29T20:09:21.472Z,9.65
2023-04-29T20:11:48.768Z,9.95
2023-04-29T20:14:16.018Z,8.55
2023-04-29T20:16:43.310Z,8.10
2023-04-29T20:19:11.753Z,8.77
2023-04-29T20:21:40.310Z,7.27
2023-04-29T20:24:08.095Z,7.88
2023-04-29T20:26:35.389Z,8.75
2023-04-29T20:29:02.664Z,8.15
2023-04-29T20:31:29.957Z,9.95
2023-04-29T20:33:57.380Z,9.10
2023-04-29T20:36:24.629Z,9.48
2023-04-29T20:38:52.351Z,9.30
2023-04-29T20:41:19.607Z,9.35
2023-04-29T20:43:46.939Z,9.63
2023-04-29T20:46:14.186Z,11.18
2023-04-29T20:48:41.472Z,9.52
2023-04-29T20:51:08.975Z,9.48
2023-04-29T20:53:36.208Z,9.02
2023-04-29T20:56:03.595Z,9.00
2023-04-29T20:58:31.022Z,9.88
2023-04-29T21:00:58.318Z,11.15
2023-04-29T21:03:26.037Z,11.35
2023-04-29T21:05:56.653Z,12.00
2023-04-29T21:08:24.263Z,12.38
2023-04-29T21:10:51.562Z,11.63
2023-04-29T21:13:18.816Z,13.93
2023-04-29T21:15:46.531Z,11.45
2023-04-29T21:18:14.404Z,15.20
2023-04-29T21:20:41.730Z,14.18
2023-04-29T21:23:09.052Z,11.68
2023-04-29T21:25:36.305Z,9.25
2023-04-29T21:28:04.519Z,10.70
2023-04-29T21:30:31.766Z,10.13
2023-04-29T21:32:59.080Z,9.35
2023-04-29T21:35:27.378Z,10.43
2023-04-29T21:37:54.842Z,8.88
2023-04-29T21:40:22.714Z,9.00
2023-04-29T21:42:51.123Z,9.50
2023-04-29T21:45:18.423Z,8.33
2023-04-29T21:47:45.806Z,9.52
2023-04-29T21:50:14.244Z,7.32
2023-04-29T21:52:41.616Z,8.15
2023-04-29T21:55:09.109Z,8.70
2023-04-29T21:57:44.289Z,10.00
2023-04-29T22:00:28.672Z,8.82
2023-04-29T22:02:56.212Z,9.48
2023-04-29T22:05:23.481Z,9.27
2023-04-29T22:07:50.684Z,8.50
2023-04-29T22:10:18.769Z,10.07
2023-04-29T22:12:46.064Z,9.15
2023-04-29T22:15:24.705Z,9.57
2023-04-29T22:17:55.228Z,8.88
2023-04-29T22:20:22.573Z,9.70
2023-04-29T22:22:52.683Z,9.38
2023-04-29T22:25:21.604Z,10.13
2023-04-29T22:27:49.333Z,8.50
2023-04-29T22:30:17.737Z,8.93
2023-04-29T22:32:45.233Z,9.32
2023-04-29T22:35:12.595Z,9.55
2023-04-29T22:37:39.833Z,9.98
2023-04-29T22:40:07.658Z,9.45
2023-04-29T22:42:34.888Z,9.20
2023-04-29T22:45:02.388Z,9.20
2023-04-29T22:47:29.840Z,8.98
2023-04-29T22:49:57.102Z,9.38
2023-04-29T22:52:25.801Z,10.35
2023-04-29T22:54:53.059Z,10.65
2023-04-29T22:57:20.371Z,9.90
2023-04-29T22:59:47.619Z,10.48
2023-04-29T23:02:15.837Z,10.60
2023-04-29T23:04:43.091Z,10.85
2023-04-29T23:07:10.436Z,10.30
2023-04-29T23:09:37.686Z,10.80
2023-04-29T23:12:05.250Z,11.77
2023-04-29T23:14:32.485Z,11.20
2023-04-29T23:16:59.689Z,11.50
2023-04-29T23:19:26.995Z,11.52
2023-04-29T23:21:54.195Z,12.70
2023-04-29T23:24:21.452Z,11.80
2023-04-29T23:26:49.501Z,13.38
2023-04-29T23:29:16.825Z,12.30
2023-04-29T23:31:44.417Z,11.88
2023-04-29T23:34:13.158Z,11.55
2023-04-29T23:36:40.517Z,11.93
2023-04-29T23:39:07.743Z,11.30
2023-04-29T23:41:35.035Z,12.07
2023-04-29T23:44:02.467Z,12.48
2023-04-29T23:46:30.756Z,13.70
2023-04-29T23:48:58.093Z,12.98
2023-04-29T23:51:26.297Z,15.05
2023-04-29T23:53:53.521Z,13.98
2023-04-29T23:56:20.784Z,15.23
2023-04-29T23:58:48.084Z,13.73
